createdAt,value
2023-05-08T00:01:36.747Z,35.72
2023-05-08T00:04:03.863Z,34.08
2023-05-08T00:06:30.959Z,30.25
2023-05-08T00:08:57.511Z,29.83
2023-05-08T00:11:24.262Z,29.30
2023-05-08T00:13:50.833Z,23.88
2023-05-08T00:16:17.554Z,24.88
2023-05-08T00:18:44.182Z,27.45
2023-05-08T00:21:10.791Z,25.58
2023-05-08T00:23:37.326Z,28.35
2023-05-08T00:26:03.968Z,30.90
2023-05-08T00:28:30.510Z,23.05
2023-05-08T00:31:00.694Z,24.98
2023-05-08T00:33:27.339Z,23.13
2023-05-08T00:36:01.328Z,24.55
2023-05-08T00:38:30.809Z,25.10
2023-05-08T00:40:58.127Z,27.40
2023-05-08T00:43:27.941Z,26.05
2023-05-08T00:45:55.852Z,26.05
2023-05-08T00:48:26.052Z,30.73
2023-05-08T00:50:54.083Z,28.35
2023-05-08T00:53:22.397Z,31.90
2023-05-08T00:55:49.620Z,25.25
2023-05-08T00:58:16.503Z,24.33
2023-05-08T01:00:44.577Z,31.20
2023-05-08T01:03:12.796Z,27.63
2023-05-08T01:05:40.977Z,29.88
2023-05-08T01:08:07.903Z,31.10
2023-05-08T01:10:51.266Z,31.98
2023-05-08T01:13:34.110Z,31.10
2023-05-08T01:16:10.489Z,32.92
2023-05-08T01:18:45.299Z,30.65
2023-05-08T01:21:34.848Z,28.67
2023-05-08T01:24:35.887Z,31.27
2023-05-08T01:27:16.524Z,30.27
2023-05-08T01:29:52.233Z,29.83
2023-05-08T01:32:21.701Z,32.60
2023-05-08T01:35:24.396Z,34.43
2023-05-08T01:38:09.725Z,35.28
2023-05-08T01:40:55.635Z,22.40
2023-05-08T01:43:27.926Z,22.98
2023-05-08T01:45:55.784Z,24.67
2023-05-08T01:48:33.533Z,30.45
2023-05-08T01:51:23.732Z,29.33
2023-05-08T01:54:00.816Z,28.50
2023-05-08T01:56:29.582Z,30.15
2023-05-08T01:58:58.245Z,36.03
2023-05-08T02:01:26.093Z,32.35
2023-05-08T02:03:56.206Z,36.00
2023-05-08T02:06:23.745Z,28.98
2023-05-08T02:08:51.431Z,31.73
2023-05-08T02:11:18.301Z,29.48
2023-05-08T02:13:47.085Z,28.73
2023-05-08T02:16:14.679Z,24.95
2023-05-08T02:18:45.199Z,25.48
2023-05-08T02:21:12.679Z,28.88
2023-05-08T02:23:39.881Z,24.52
2023-05-08T02:26:06.702Z,30.08
2023-05-08T02:28:36.020Z,29.40
2023-05-08T02:31:02.866Z,27.13
2023-05-08T02:37:54.460Z,22.60
2023-05-08T02:40:22.668Z,27.67
2023-05-08T02:42:49.762Z,28.70
2023-05-08T02:45:16.632Z,31.38
2023-05-08T02:47:51.138Z,32.15
2023-05-08T02:50:24.878Z,35.55
2023-05-08T02:52:54.786Z,38.13
2023-05-08T02:55:54.340Z,44.25
2023-05-08T02:58:37.039Z,34.70
2023-05-08T03:01:07.557Z,33.28
2023-05-08T03:03:45.782Z,30.95
2023-05-08T03:06:16.973Z,35.10
2023-05-08T03:08:44.998Z,35.45
2023-05-08T03:11:15.031Z,33.35
2023-05-08T03:13:42.718Z,34.75
2023-05-08T03:16:12.146Z,39.45
2023-05-08T03:18:43.487Z,35.78
2023-05-08T03:23:38.154Z,32.38
2023-05-08T03:26:04.805Z,32.75
2023-05-08T03:28:33.277Z,32.38
2023-05-08T03:31:00.788Z,33.97
2023-05-08T03:33:28.288Z,31.60
2023-05-08T03:35:55.084Z,27.15
2023-05-08T03:38:22.225Z,27.13
2023-05-08T03:40:49.261Z,42.65
2023-05-08T03:43:17.007Z,30.63
2023-05-08T03:45:45.267Z,32.83
2023-05-08T03:48:14.050Z,34.05
2023-05-08T03:50:42.166Z,38.58
2023-05-08T03:53:10.215Z,32.88
2023-05-08T03:55:37.474Z,34.28
2023-05-08T03:58:15.204Z,30.25
2023-05-08T04:01:06.785Z,29.27
2023-05-08T04:03:52.103Z,33.45
2023-05-08T04:06:30.694Z,32.97
2023-05-08T04:09:05.920Z,34.47
2023-05-08T04:11:42.008Z,34.45
2023-05-08T04:14:14.160Z,35.50
2023-05-08T04:16:48.337Z,46.55
2023-05-08T04:19:19.465Z,37.88
2023-05-08T04:21:46.941Z,44.53
2023-05-08T04:24:15.152Z,33.67
2023-05-08T04:26:44.140Z,35.13
2023-05-08T04:29:10.833Z,34.85
2023-05-08T04:31:38.804Z,40.05
2023-05-08T04:34:05.500Z,38.88
2023-05-08T04:36:33.734Z,33.15
2023-05-08T04:39:02.010Z,36.35
2023-05-08T04:41:28.901Z,42.40
2023-05-08T04:43:55.533Z,36.55
2023-05-08T04:46:22.236Z,43.38
2023-05-08T04:48:48.780Z,33.80
2023-05-08T04:51:15.329Z,45.25
2023-05-08T04:53:42.106Z,32.22
2023-05-08T04:56:08.659Z,38.30
2023-05-08T04:58:36.087Z,34.65
2023-05-08T05:01:04.028Z,38.03
2023-05-08T05:03:31.659Z,48.03
2023-05-08T05:05:59.338Z,59.30
2023-05-08T05:08:26.785Z,38.97
2023-05-08T05:10:54.268Z,34.20
2023-05-08T05:13:21.100Z,46.78
2023-05-08T05:15:47.756Z,29.70
2023-05-08T05:18:15.153Z,37.90
2023-05-08T05:20:41.754Z,31.27
2023-05-08T05:23:08.506Z,33.55
2023-05-08T05:25:35.163Z,30.05
2023-05-08T05:28:02.038Z,34.55
2023-05-08T05:30:28.845Z,52.00
2023-05-08T05:32:55.672Z,32.75
2023-05-08T05:35:25.374Z,42.33
2023-05-08T05:37:52.598Z,30.58
2023-05-08T05:40:20.012Z,67.97
2023-05-08T05:42:50.793Z,31.20
2023-05-08T05:45:18.432Z,51.10
2023-05-08T05:47:49.689Z,31.83
2023-05-08T05:50:18.562Z,47.65
2023-05-08T05:52:46.262Z,30.50
2023-05-08T05:55:13.104Z,45.42
2023-05-08T05:57:39.844Z,51.13
2023-05-08T06:00:07.202Z,39.25
2023-05-08T06:02:41.813Z,34.85
2023-05-08T06:07:39.661Z,41.55
2023-05-08T06:10:06.987Z,38.50
2023-05-08T06:12:33.766Z,58.03
2023-05-08T06:15:01.253Z,34.72
2023-05-08T06:17:27.870Z,61.83
2023-05-08T06:19:56.414Z,35.70
2023-05-08T06:22:24.190Z,44.17
2023-05-08T06:24:54.577Z,36.60
2023-05-08T06:27:22.286Z,38.97
2023-05-08T06:29:53.317Z,36.25
2023-05-08T06:32:20.554Z,33.83
2023-05-08T06:34:47.127Z,32.97
2023-05-08T06:37:13.588Z,31.42
2023-05-08T06:39:40.476Z,36.47
2023-05-08T06:42:08.247Z,35.30
2023-05-08T06:44:38.053Z,46.35
2023-05-08T06:47:04.538Z,32.28
2023-05-08T06:49:31.019Z,37.80
2023-05-08T06:51:58.231Z,29.83
2023-05-08T06:54:25.039Z,39.58
2023-05-08T06:56:53.266Z,27.70
2023-05-08T06:59:21.251Z,33.92
2023-05-08T07:01:47.921Z,29.80
2023-05-08T07:04:14.669Z,29.38
2023-05-08T07:06:41.227Z,27.15
2023-05-08T07:09:07.871Z,23.55
2023-05-08T07:11:34.394Z,32.75
2023-05-08T07:14:04.181Z,26.42
2023-05-08T07:16:30.685Z,32.47
2023-05-08T07:18:57.293Z,26.83
2023-05-08T07:21:23.873Z,31.02
2023-05-08T07:23:51.673Z,29.10
2023-05-08T07:26:18.630Z,31.05
2023-05-08T07:28:45.253Z,27.63
2023-05-08T07:31:12.046Z,25.05
2023-05-08T07:33:38.625Z,31.95
2023-05-08T07:36:05.497Z,25.27
2023-05-08T07:38:32.067Z,25.40
2023-05-08T07:40:59.623Z,27.33
2023-05-08T07:43:26.568Z,23.02
2023-05-08T07:45:53.133Z,25.77
2023-05-08T07:48:19.898Z,26.75
2023-05-08T07:50:46.411Z,26.13
2023-05-08T07:53:13.035Z,26.75
2023-05-08T07:55:39.654Z,24.77
2023-05-08T07:58:06.638Z,25.92
2023-05-08T08:00:33.220Z,24.27
2023-05-08T08:02:59.781Z,19.85
2023-05-08T08:05:26.358Z,24.50
2023-05-08T08:07:52.888Z,23.63
2023-05-08T08:10:19.397Z,27.55
2023-05-08T08:12:45.991Z,24.60
2023-05-08T08:15:12.846Z,25.92
2023-05-08T08:17:39.682Z,21.08
2023-05-08T08:20:06.817Z,19.25
2023-05-08T08:22:33.287Z,16.58
2023-05-08T08:24:59.814Z,17.90
2023-05-08T08:27:26.277Z,19.63
2023-05-08T08:30:04.525Z,24.60
2023-05-08T08:32:39.343Z,17.33
2023-05-08T08:35:06.120Z,19.83
2023-05-08T08:37:32.661Z,15.60
2023-05-08T08:39:59.897Z,15.32
2023-05-08T08:42:26.930Z,13.30
2023-05-08T08:44:53.926Z,14.45
2023-05-08T08:47:23.564Z,15.63
2023-05-08T08:49:51.160Z,13.60
2023-05-08T08:52:32.375Z,12.98
2023-05-08T08:55:01.598Z,16.38
2023-05-08T08:57:33.549Z,13.23
2023-05-08T09:00:04.022Z,14.90
2023-05-08T09:02:31.621Z,14.93
2023-05-08T09:04:58.535Z,16.40
2023-05-08T09:07:25.949Z,16.10
2023-05-08T09:09:53.085Z,14.23
2023-05-08T09:12:19.583Z,18.45
2023-05-08T09:14:46.148Z,14.27
2023-05-08T09:17:12.849Z,28.50
2023-05-08T09:19:39.578Z,18.65
2023-05-08T09:22:07.166Z,25.90
2023-05-08T09:24:57.013Z,15.68
2023-05-08T09:27:25.660Z,17.25
2023-05-08T09:30:04.348Z,15.50
2023-05-08T09:32:32.224Z,14.45
2023-05-08T09:34:59.333Z,13.48
2023-05-08T09:37:26.735Z,19.77
2023-05-08T09:39:53.975Z,24.60
2023-05-08T09:42:20.962Z,20.25
2023-05-08T09:44:49.363Z,14.73
2023-05-08T09:47:18.701Z,23.17
2023-05-08T09:50:02.389Z,25.42
2023-05-08T09:52:29.691Z,17.20
2023-05-08T09:55:05.289Z,19.63
2023-05-08T09:57:34.069Z,14.98
2023-05-08T10:00:09.185Z,16.83
2023-05-08T10:02:39.304Z,13.85
2023-05-08T10:05:27.406Z,12.00
2023-05-08T10:07:54.006Z,13.63
2023-05-08T10:10:27.805Z,17.08
2023-05-08T10:12:55.601Z,15.23
2023-05-08T10:15:29.167Z,12.43
2023-05-08T10:18:04.535Z,14.68
2023-05-08T10:20:35.787Z,14.57
2023-05-08T10:25:32.545Z,13.23
2023-05-08T10:28:26.795Z,16.05
2023-05-08T10:30:54.099Z,16.13
2023-05-08T10:33:21.507Z,14.93
2023-05-08T10:35:48.175Z,15.50
2023-05-08T10:38:15.673Z,14.68
2023-05-08T10:40:42.320Z,10.63
2023-05-08T10:43:10.096Z,13.13
2023-05-08T10:45:37.161Z,15.23
2023-05-08T10:48:11.523Z,13.48
2023-05-08T10:50:51.814Z,13.95
2023-05-08T10:53:29.514Z,13.88
2023-05-08T10:55:56.153Z,12.52
2023-05-08T10:58:31.211Z,13.68
2023-05-08T11:00:59.380Z,11.35
2023-05-08T11:03:31.402Z,9.73
2023-05-08T11:06:00.298Z,11.20
2023-05-08T11:08:28.205Z,10.93
2023-05-08T11:11:05.218Z,19.38
2023-05-08T11:13:36.650Z,10.40
2023-05-08T11:18:41.919Z,14.52
2023-05-08T11:21:18.913Z,15.50
2023-05-08T11:23:56.648Z,11.05
2023-05-08T11:26:38.464Z,31.70
2023-05-08T11:29:16.235Z,15.50
2023-05-08T11:31:52.893Z,15.52
2023-05-08T11:34:38.321Z,14.32
2023-05-08T11:37:09.257Z,13.07
2023-05-08T11:39:35.757Z,17.50
2023-05-08T11:42:27.235Z,12.55
2023-05-08T11:45:06.220Z,9.80
2023-05-08T11:47:38.740Z,15.20
2023-05-08T11:50:06.751Z,14.05
2023-05-08T11:52:36.647Z,16.35
2023-05-08T11:55:07.629Z,11.55
2023-05-08T11:57:34.317Z,26.30
2023-05-08T12:00:05.671Z,14.30
2023-05-08T12:02:42.494Z,17.60
2023-05-08T12:05:10.663Z,17.63
2023-05-08T12:07:47.264Z,16.60
2023-05-08T12:10:15.626Z,16.40
2023-05-08T12:12:43.679Z,17.10
2023-05-08T12:15:13.913Z,17.63
2023-05-08T12:17:41.143Z,17.00
2023-05-08T12:20:16.042Z,14.85
2023-05-08T12:22:49.674Z,15.05
2023-05-08T12:25:17.041Z,16.92
2023-05-08T12:27:44.453Z,14.73
2023-05-08T12:30:14.008Z,13.55
2023-05-08T12:32:41.968Z,18.08
2023-05-08T12:35:09.494Z,9.60
2023-05-08T12:37:36.656Z,10.65
2023-05-08T12:40:04.471Z,7.70
2023-05-08T12:42:44.789Z,13.05
2023-05-08T12:45:20.779Z,11.45
2023-05-08T12:47:51.526Z,10.43
2023-05-08T12:50:21.063Z,15.48
2023-05-08T12:52:49.953Z,9.38
2023-05-08T12:55:26.440Z,11.33
2023-05-08T12:58:07.164Z,7.50
2023-05-08T13:00:43.521Z,6.55
2023-05-08T13:03:12.482Z,7.72
2023-05-08T13:05:43.957Z,7.82
2023-05-08T13:08:11.076Z,7.55
2023-05-08T13:10:52.448Z,6.70
2023-05-08T13:13:26.690Z,8.63
2023-05-08T13:15:55.023Z,6.65
2023-05-08T13:18:27.501Z,6.70
2023-05-08T13:20:55.027Z,7.13
2023-05-08T13:23:22.359Z,10.20
2023-05-08T13:25:48.874Z,5.40
2023-05-08T13:28:15.601Z,5.45
2023-05-08T13:30:42.144Z,6.05
2023-05-08T13:33:08.998Z,5.22
2023-05-08T13:35:36.678Z,7.78
2023-05-08T13:38:03.396Z,3.50
2023-05-08T13:40:30.157Z,5.10
2023-05-08T13:42:56.732Z,6.63
2023-05-08T13:45:23.287Z,17.58
2023-05-08T13:47:51.352Z,5.85
2023-05-08T13:50:19.795Z,6.10
2023-05-08T13:52:46.350Z,4.88
2023-05-08T13:55:13.793Z,8.73
2023-05-08T13:57:41.087Z,5.72
2023-05-08T14:00:09.266Z,7.22
2023-05-08T14:02:37.223Z,6.43
2023-05-08T14:05:07.951Z,6.97
2023-05-08T14:07:35.070Z,6.75
2023-05-08T14:10:02.524Z,4.45
2023-05-08T14:12:29.120Z,5.25
2023-05-08T14:14:55.757Z,7.18
2023-05-08T14:17:22.334Z,5.00
2023-05-08T14:19:48.865Z,8.95
2023-05-08T14:22:15.364Z,3.78
2023-05-08T14:24:41.892Z,3.25
2023-05-08T14:27:08.538Z,4.68
2023-05-08T14:29:35.321Z,5.38
2023-05-08T14:32:02.095Z,3.10
2023-05-08T14:34:28.796Z,3.75
2023-05-08T14:36:55.385Z,4.32
2023-05-08T14:39:22.013Z,3.70
2023-05-08T14:42:10.435Z,2.90
2023-05-08T14:44:35.076Z,4.15
2023-05-08T14:47:01.586Z,6.72
2023-05-08T14:49:37.258Z,3.67
2023-05-08T14:52:06.063Z,3.97
2023-05-08T14:54:33.016Z,4.55
2023-05-08T14:56:59.913Z,3.80
2023-05-08T14:59:26.660Z,4.50
2023-05-08T15:01:53.294Z,5.60
2023-05-08T15:04:20.282Z,5.45
2023-05-08T15:06:47.048Z,5.50
2023-05-08T15:09:13.651Z,4.82
2023-05-08T15:11:40.372Z,5.75
2023-05-08T15:14:06.979Z,6.90
2023-05-08T15:16:33.734Z,6.03
2023-05-08T15:19:00.496Z,5.18
2023-05-08T15:21:27.359Z,4.35
2023-05-08T15:23:54.734Z,5.82
2023-05-08T15:26:22.080Z,5.03
2023-05-08T15:28:48.721Z,3.97
2023-05-08T15:31:15.729Z,5.95
2023-05-08T15:33:44.774Z,5.07
2023-05-08T15:36:13.062Z,4.15
2023-05-08T15:38:40.822Z,4.63
2023-05-08T15:41:07.778Z,6.78
2023-05-08T15:43:34.586Z,5.88
2023-05-08T15:46:01.367Z,6.53
2023-05-08T15:48:27.944Z,6.15
2023-05-08T15:50:54.546Z,4.75
2023-05-08T15:53:21.115Z,4.60
2023-05-08T15:55:47.759Z,4.82
2023-05-08T15:58:14.290Z,4.38
2023-05-08T16:00:45.124Z,5.45
2023-05-08T16:03:12.154Z,7.03
2023-05-08T16:05:39.640Z,6.05
2023-05-08T16:08:07.554Z,4.82
2023-05-08T16:10:34.417Z,7.53
2023-05-08T16:13:01.082Z,4.88
2023-05-08T16:15:27.687Z,4.55
2023-05-08T16:17:54.386Z,5.72
2023-05-08T16:20:21.102Z,6.13
2023-05-08T16:22:47.668Z,7.90
2023-05-08T16:25:14.478Z,7.13
2023-05-08T16:27:41.210Z,6.75
2023-05-08T16:30:08.289Z,8.43
2023-05-08T16:32:34.893Z,8.20
2023-05-08T16:35:01.427Z,8.02
2023-05-08T16:37:28.064Z,11.00
2023-05-08T16:39:54.613Z,9.57
2023-05-08T16:42:21.262Z,9.55
2023-05-08T16:44:47.804Z,10.00
2023-05-08T16:47:14.520Z,10.70
2023-05-08T16:49:41.177Z,9.93
2023-05-08T16:52:07.750Z,11.75
2023-05-08T16:54:34.275Z,11.27
2023-05-08T16:57:00.822Z,17.80
2023-05-08T16:59:27.437Z,14.70
2023-05-08T17:01:54.215Z,14.35
2023-05-08T17:04:20.803Z,12.95
2023-05-08T17:06:47.499Z,14.38
2023-05-08T17:09:14.021Z,16.92
2023-05-08T17:11:40.623Z,17.55
2023-05-08T17:14:07.236Z,13.35
2023-05-08T17:16:33.778Z,17.23
2023-05-08T17:19:00.549Z,16.30
2023-05-08T17:21:27.092Z,13.57
2023-05-08T17:23:53.700Z,16.30
2023-05-08T17:26:21.702Z,17.55
2023-05-08T17:28:48.328Z,16.15
2023-05-08T17:31:15.875Z,16.92
2023-05-08T17:33:42.541Z,16.40
2023-05-08T17:36:09.269Z,14.85
2023-05-08T17:38:38.234Z,17.40
2023-05-08T17:41:04.776Z,16.33
2023-05-08T17:43:31.438Z,15.38
2023-05-08T17:45:58.067Z,14.02
2023-05-08T17:48:24.749Z,18.38
2023-05-08T17:50:51.288Z,16.58
2023-05-08T17:53:17.914Z,14.32
2023-05-08T17:55:44.434Z,15.95
2023-05-08T17:58:10.986Z,17.30
2023-05-08T18:00:37.782Z,19.17
2023-05-08T18:03:04.590Z,16.15
2023-05-08T18:05:31.410Z,19.83
2023-05-08T18:07:57.929Z,20.38
2023-05-08T18:10:24.518Z,19.02
2023-05-08T18:12:51.159Z,14.43
2023-05-08T18:15:17.772Z,16.45
2023-05-08T18:17:44.445Z,15.30
2023-05-08T18:20:11.563Z,16.20
2023-05-08T18:22:38.237Z,14.93
2023-05-08T18:25:05.142Z,14.68
2023-05-08T18:27:34.185Z,16.73
2023-05-08T18:30:01.404Z,21.85
2023-05-08T18:32:28.989Z,13.18
2023-05-08T18:34:56.783Z,15.30
2023-05-08T18:37:23.986Z,17.00
2023-05-08T18:39:50.571Z,13.57
2023-05-08T18:42:17.144Z,14.75
2023-05-08T18:44:43.790Z,13.10
2023-05-08T18:47:10.310Z,15.18
2023-05-08T18:49:36.983Z,16.67
2023-05-08T18:52:03.530Z,12.25
2023-05-08T18:54:30.142Z,16.08
2023-05-08T18:56:56.641Z,13.98
2023-05-08T18:59:23.170Z,15.15
2023-05-08T19:01:50.533Z,15.07
2023-05-08T19:04:17.091Z,15.27
2023-05-08T19:06:43.783Z,16.25
2023-05-08T19:09:10.400Z,18.05
2023-05-08T19:11:36.981Z,12.57
2023-05-08T19:14:03.961Z,16.25
2023-05-08T19:16:30.583Z,17.90
2023-05-08T19:18:57.194Z,13.57
2023-05-08T19:21:23.752Z,14.52
2023-05-08T19:23:50.908Z,21.63
2023-05-08T19:26:18.060Z,17.38
2023-05-08T19:28:44.590Z,13.90
2023-05-08T19:31:11.138Z,14.75
2023-05-08T19:33:37.672Z,18.08
2023-05-08T19:36:04.219Z,18.52
2023-05-08T19:38:30.872Z,20.98
2023-05-08T19:40:58.118Z,14.75
2023-05-08T19:43:26.716Z,15.50
2023-05-08T19:45:55.162Z,15.52
2023-05-08T19:48:21.931Z,16.65
2023-05-08T19:50:48.621Z,15.77
2023-05-08T19:53:15.193Z,17.42
2023-05-08T19:55:42.653Z,18.63
2023-05-08T19:58:09.218Z,16.10
2023-05-08T20:00:35.813Z,21.70
2023-05-08T20:03:02.568Z,22.20
2023-05-08T20:05:29.276Z,14.45
2023-05-08T20:07:55.848Z,17.80
2023-05-08T20:10:22.528Z,19.30
2023-05-08T20:12:49.094Z,13.48
2023-05-08T20:15:15.731Z,15.50
2023-05-08T20:17:43.394Z,14.05
2023-05-08T20:20:10.621Z,19.15
2023-05-08T20:22:37.802Z,19.55
2023-05-08T20:25:05.104Z,16.17
2023-05-08T20:27:31.728Z,13.73
2023-05-08T20:29:58.363Z,13.00
2023-05-08T20:32:25.058Z,14.65
2023-05-08T20:34:51.868Z,11.23
2023-05-08T20:37:18.575Z,12.88
2023-05-08T20:39:45.187Z,12.60
2023-05-08T20:42:11.875Z,12.40
2023-05-08T20:44:38.722Z,15.30
2023-05-08T20:47:06.038Z,13.93
2023-05-08T20:49:32.987Z,13.68
2023-05-08T20:51:59.588Z,12.63
2023-05-08T20:54:26.109Z,13.30
2023-05-08T20:56:52.571Z,14.00
2023-05-08T20:59:19.185Z,13.65
2023-05-08T21:01:46.904Z,14.52
2023-05-08T21:04:13.499Z,14.18
2023-05-08T21:06:40.128Z,20.05
2023-05-08T21:09:07.144Z,15.02
2023-05-08T21:11:33.846Z,17.73
2023-05-08T21:14:00.349Z,13.45
2023-05-08T21:16:27.225Z,18.50
2023-05-08T21:18:55.361Z,14.93
2023-05-08T21:21:23.332Z,15.20
2023-05-08T21:23:49.917Z,13.23
2023-05-08T21:26:18.002Z,13.93
2023-05-08T21:28:44.511Z,17.30
2023-05-08T21:31:11.048Z,15.70
2023-05-08T21:33:37.639Z,29.95
2023-05-08T21:36:04.306Z,16.55
2023-05-08T21:38:30.868Z,16.92
2023-05-08T21:40:57.480Z,18.15
2023-05-08T21:43:24.021Z,17.48
2023-05-08T21:45:50.629Z,20.70
2023-05-08T21:48:17.746Z,15.07
2023-05-08T21:50:44.340Z,17.63
2023-05-08T21:53:10.849Z,14.40
2023-05-08T21:55:37.393Z,17.02
2023-05-08T21:58:03.961Z,15.57
2023-05-08T22:00:30.530Z,26.65
2023-05-08T22:02:57.132Z,17.05
2023-05-08T22:05:24.405Z,20.58
2023-05-08T22:07:51.000Z,17.63
2023-05-08T22:10:17.742Z,18.38
2023-05-08T22:12:44.321Z,18.50
2023-05-08T22:15:25.481Z,18.55
2023-05-08T22:17:52.820Z,20.10
2023-05-08T22:20:19.978Z,25.30
2023-05-08T22:22:47.382Z,21.77
2023-05-08T22:25:14.425Z,16.58
2023-05-08T22:27:41.295Z,21.15
2023-05-08T22:30:08.092Z,18.73
2023-05-08T22:32:34.758Z,20.50
2023-05-08T22:35:01.403Z,18.67
2023-05-08T22:37:27.930Z,19.05
2023-05-08T22:39:54.439Z,17.48
2023-05-08T22:42:20.968Z,25.38
2023-05-08T22:44:47.610Z,21.90
2023-05-08T22:47:14.187Z,22.90
2023-05-08T22:49:41.386Z,18.88
2023-05-08T22:52:09.011Z,19.15
2023-05-08T22:54:35.690Z,24.00
2023-05-08T22:57:02.788Z,19.58
2023-05-08T22:59:29.388Z,20.42
2023-05-08T23:01:55.887Z,22.13
2023-05-08T23:04:22.784Z,20.05
2023-05-08T23:06:49.616Z,25.70
2023-05-08T23:09:16.366Z,20.75
2023-05-08T23:11:42.931Z,25.35
2023-05-08T23:14:09.444Z,22.27
2023-05-08T23:16:36.065Z,25.88
2023-05-08T23:19:04.381Z,23.27
2023-05-08T23:21:31.875Z,26.67
2023-05-08T23:23:58.891Z,30.70
2023-05-08T23:26:25.967Z,30.00
2023-05-08T23:28:52.579Z,23.23
2023-05-08T23:31:19.153Z,27.90
2023-05-08T23:33:45.820Z,21.88
2023-05-08T23:36:12.353Z,22.42
2023-05-08T23:38:38.890Z,22.40
2023-05-08T23:41:05.515Z,24.70
2023-05-08T23:43:32.082Z,22.30
2023-05-08T23:45:58.684Z,24.98
2023-05-08T23:48:25.784Z,37.15
2023-05-08T23:50:52.361Z,25.17
2023-05-08T23:53:19.061Z,45.05
2023-05-08T23:55:46.590Z,30.25
2023-05-08T23:58:13.129Z,36.55
